logo     logo



Minimumtemperatur heute -9.3 °C     Maximumtemperatur heute -3.9 °C
Datum Zeit
MEZ
Lufttemperatur
°C
Wasser- oder
Eistemperatur
°C
Windrichtung
Grad
Wind Mittel
Km/h
Windrichtung Böe
Grad
Windböe
Km/h
rel. Feuchte
%
19.01.2018 08:40 -7.0 -0.1 0 0.0 49 3.2 96
19.01.2018 08:30 -7.0 -0.1 0 0.0 37 3.6 88
19.01.2018 08:20 -6.5 -0.1 0 0.0 192 1.8 99
19.01.2018 08:10 -9.1 -0.1 0 0.0 277 3.2 96
19.01.2018 08:00 -9.3 -0.1 0 0.0 255 1.8 94
19.01.2018 07:50 -8.3 -0.1 0 0.0 0 0.0 91
19.01.2018 07:40 -8.0 -0.1 0 0.0 349 1.8 98
19.01.2018 07:30 -8.3 -0.1 0 0.0 0 0.0 94
19.01.2018 07:20 -7.3 -0.1 238 1.4 237 4.0 96
19.01.2018 07:10 -8.7 -0.1 0 0.0 12 2.5 91
19.01.2018 07:00 -7.5 -0.1 0 0.0 260 2.5 99
19.01.2018 06:50 -8.7 -0.1 0 0.0 0 0.0 92
19.01.2018 06:40 -7.2 -0.1 0 0.0 329 2.5 98
19.01.2018 06:30 -7.7 -0.1 0 0.0 260 2.2 93
19.01.2018 06:20 -7.5 -0.1 0 0.0 0 0.0 95
19.01.2018 06:10 -6.5 -0.1 108 2.9 87 4.7 84
19.01.2018 06:00 -6.6 -0.1 89 2.9 84 4.7 92
19.01.2018 05:50 -7.6 -0.1 96 2.9 102 5.0 94
19.01.2018 05:40 -7.9 -0.2 0 0.0 122 4.7 94
19.01.2018 05:30 -5.4 -0.1 250 1.8 237 3.6 96
19.01.2018 05:20 -7.6 -0.1 0 0.0 300 1.8 95
19.01.2018 05:10 -7.6 -0.1 0 0.0 290 2.5 90
19.01.2018 05:00 -7.1 -0.1 0 0.0 292 1.8 88
19.01.2018 04:50 -5.7 -0.1 0 0.0 323 4.7 90
19.01.2018 04:40 -4.5 -0.1 99 1.4 104 3.6 85
19.01.2018 04:30 -3.9 -0.2 118 2.5 102 5.8 80
19.01.2018 04:20 -6.1 -0.1 286 1.8 296 6.8 88
19.01.2018 04:10 -5.1 -0.1 0 0.0 156 3.2 91
19.01.2018 04:00 -5.9 -0.2 0 0.0 168 5.0 91
19.01.2018 03:50 -6.7 -0.2 274 1.8 238 4.7 93
19.01.2018 03:40 -6.2 -0.1 0 0.0 251 4.0 93
19.01.2018 03:30 -6.1 -0.2 240 1.8 214 5.8 91
19.01.2018 03:20 -7.0 -0.1 0 0.0 231 4.7 94
19.01.2018 03:10 -7.3 -0.2 0 0.0 4 2.2 94
19.01.2018 03:00 -6.4 -0.2 0 0.0 230 2.9 91
19.01.2018 02:50 -7.0 -0.1 0 0.0 245 4.7 96
19.01.2018 02:40 -7.6 -0.1 0 0.0 242 1.8 94
19.01.2018 02:30 -8.4 -0.1 295 1.4 289 3.6 95
19.01.2018 02:20 -8.2 -0.2 0 0.0 290 2.5 86
19.01.2018 02:10 -8.2 -0.2 0 0.0 260 3.2 93
19.01.2018 02:00 -8.4 -0.1 0 0.0 259 3.2 96
19.01.2018 01:50 -7.4 -0.2 0 0.0 0 0.0 92
19.01.2018 01:40 -8.3 -0.2 0 0.0 193 1.4 96
19.01.2018 01:30 -8.8 -0.2 0 0.0 201 3.2 92
19.01.2018 01:20 -8.3 -0.1 0 0.0 1 3.6 95
19.01.2018 01:10 -8.1 -0.1 0 0.0 274 2.2 96
www.zamg.ac.at

klagenfurt@zamg.ac.at